powered by Meteolive.it
Dati meteo   Attuali  Passati Ogni 3 ore 7 Giorni 15 Giorni Avvisi Meteo Mappe meteo
Milano / Linate, Italy
Alba: 6:15 AM UTC1
Tramonto: 6:41 PM UTC1
 Lat: 45.42N, Lon: 9.27E
ICAO Usato: LIML
Condizioni Meteo Attuali Aggiornate: 25.03.2017 alle 23:20 LT
Pioggia
Pioggia
Molto Nuvoloso
Pioggia
Temp: 13°C
Umidita': 100%
Direz/Vel. Vento: S 09 KTS
Pressione: 1018 hPa
Punto di rugiada: 13°C
Temperatura percepita: 13°C
Visibilitą: N/D
Temperatura percepita in
presenza di vento (Wind Chill)
:
12°C
T. max (ultime 24 ore): 20°C
T. min (ultime 24 ore): 9°C


METAR ORIGINALE
LIML 252120Z 19009KT 160V230 5000 RA SCT008 FEW015CB BKN060 13/13 Q1018 NOSIG